createdAt,value
2022-11-24T00:01:23.875Z,84.01
2022-11-24T00:03:59.563Z,83.79
2022-11-24T00:06:28.459Z,83.79
2022-11-24T00:08:56.703Z,83.73
2022-11-24T00:11:27.656Z,83.80
2022-11-24T00:13:57.060Z,84.15
2022-11-24T00:16:27.922Z,84.50
2022-11-24T00:18:57.402Z,84.49
2022-11-24T00:21:27.479Z,84.50
2022-11-24T00:23:55.810Z,84.71
2022-11-24T00:26:28.960Z,84.37
2022-11-24T00:28:59.454Z,84.52
2022-11-24T00:31:31.620Z,84.59
2022-11-24T00:34:01.834Z,84.58
2022-11-24T00:36:32.306Z,85.06
2022-11-24T00:39:03.215Z,85.18
2022-11-24T00:41:32.056Z,85.31
2022-11-24T00:44:00.482Z,85.25
2022-11-24T00:46:28.632Z,85.09
2022-11-24T00:48:57.507Z,84.94
2022-11-24T00:51:28.072Z,84.58
2022-11-24T00:53:57.441Z,84.72
2022-11-24T00:56:27.204Z,84.91
2022-11-24T00:58:55.438Z,85.10
2022-11-24T01:01:26.175Z,85.07
2022-11-24T01:03:55.349Z,85.16
2022-11-24T01:06:26.084Z,85.15
2022-11-24T01:08:54.693Z,85.12
2022-11-24T01:11:28.988Z,85.12
2022-11-24T01:13:59.156Z,85.03
2022-11-24T01:16:32.760Z,84.97
2022-11-24T01:19:01.572Z,84.69
2022-11-24T01:21:29.575Z,84.67
2022-11-24T01:23:57.789Z,85.29
2022-11-24T01:26:25.631Z,85.12
2022-11-24T01:28:55.529Z,84.95
2022-11-24T01:31:25.058Z,84.91
2022-11-24T01:33:54.089Z,84.92
2022-11-24T01:36:22.527Z,84.69
2022-11-24T01:38:51.631Z,84.69
2022-11-24T01:41:22.723Z,85.07
2022-11-24T01:43:52.524Z,85.07
2022-11-24T01:46:27.143Z,85.14
2022-11-24T01:49:20.996Z,85.12
2022-11-24T01:51:55.577Z,84.93
2022-11-24T01:54:36.430Z,84.69
2022-11-24T01:57:15.592Z,84.22
2022-11-24T01:59:46.830Z,84.10
2022-11-24T02:02:15.506Z,84.34
2022-11-24T02:04:44.305Z,84.26
2022-11-24T02:07:13.671Z,84.37
2022-11-24T02:09:51.839Z,84.28
2022-11-24T02:12:20.162Z,84.07
2022-11-24T02:14:48.286Z,84.32
2022-11-24T02:17:16.173Z,84.56
2022-11-24T02:19:57.633Z,84.69
2022-11-24T02:22:50.121Z,84.32
2022-11-24T02:25:35.317Z,84.41
2022-11-24T02:28:08.708Z,84.60
2022-11-24T02:30:36.704Z,84.36
2022-11-24T02:33:04.498Z,84.42
2022-11-24T02:35:33.401Z,84.31
2022-11-24T02:38:01.233Z,84.44
2022-11-24T02:40:31.071Z,84.72
2022-11-24T02:43:08.028Z,85.00
2022-11-24T02:45:35.985Z,85.16
2022-11-24T02:48:04.079Z,85.21
2022-11-24T02:50:32.094Z,85.10
2022-11-24T02:53:00.004Z,85.13
2022-11-24T02:55:27.982Z,85.25
2022-11-24T02:57:56.163Z,85.08
2022-11-24T03:00:24.053Z,85.32
2022-11-24T03:02:52.458Z,85.85
2022-11-24T03:05:20.869Z,85.99
2022-11-24T03:07:48.742Z,86.07
2022-11-24T03:10:16.896Z,85.76
2022-11-24T03:12:44.835Z,85.72
2022-11-24T03:15:12.689Z,85.72
2022-11-24T03:17:40.591Z,85.62
2022-11-24T03:20:09.350Z,85.64
2022-11-24T03:22:37.592Z,85.68
2022-11-24T03:25:05.796Z,85.63
2022-11-24T03:27:33.792Z,85.62
2022-11-24T03:30:01.678Z,85.62
2022-11-24T03:32:29.614Z,85.58
2022-11-24T03:34:57.513Z,85.41
2022-11-24T03:37:25.370Z,85.52
2022-11-24T03:39:53.206Z,85.56
2022-11-24T03:42:21.052Z,85.77
2022-11-24T03:44:48.890Z,85.61
2022-11-24T03:47:16.864Z,85.68
2022-11-24T03:49:44.831Z,85.88
2022-11-24T03:52:12.728Z,85.87
2022-11-24T03:54:40.545Z,86.00
2022-11-24T03:57:08.603Z,85.89
2022-11-24T03:59:36.515Z,86.00
2022-11-24T04:02:04.456Z,86.07
2022-11-24T04:04:32.743Z,86.54
2022-11-24T04:07:00.858Z,86.62
2022-11-24T04:09:28.776Z,86.45
2022-11-24T04:12:15.394Z,86.65
2022-11-24T04:14:43.268Z,86.77
2022-11-24T04:17:11.169Z,86.95
2022-11-24T04:19:39.150Z,86.85
2022-11-24T04:22:06.989Z,86.67
2022-11-24T04:24:35.135Z,86.67
2022-11-24T04:27:03.388Z,86.87
2022-11-24T04:29:31.462Z,87.17
2022-11-24T04:31:59.282Z,87.13
2022-11-24T04:34:27.080Z,86.95
2022-11-24T04:36:54.869Z,87.08
2022-11-24T04:39:26.448Z,87.13
2022-11-24T04:41:56.995Z,87.29
2022-11-24T04:44:24.996Z,87.15
2022-11-24T04:46:52.982Z,86.88
2022-11-24T04:49:20.954Z,87.04
2022-11-24T04:51:48.810Z,87.19
2022-11-24T04:54:16.743Z,87.31
2022-11-24T04:56:44.608Z,87.68
2022-11-24T04:59:15.006Z,87.62
2022-11-24T05:01:44.272Z,87.54
2022-11-24T05:04:14.581Z,87.68
2022-11-24T05:06:42.540Z,87.60
2022-11-24T05:09:17.743Z,87.62
2022-11-24T05:11:45.722Z,87.79
2022-11-24T05:14:13.606Z,87.96
2022-11-24T05:16:41.695Z,87.90
2022-11-24T05:19:09.671Z,87.54
2022-11-24T05:21:37.746Z,87.38
2022-11-24T05:24:06.065Z,87.73
2022-11-24T05:26:35.580Z,87.89
2022-11-24T05:29:03.581Z,88.11
2022-11-24T05:31:31.596Z,88.19
2022-11-24T05:33:59.613Z,88.53
2022-11-24T05:36:45.997Z,88.65
2022-11-24T05:39:13.817Z,88.50
2022-11-24T05:41:42.205Z,88.56
2022-11-24T05:44:10.203Z,88.71
2022-11-24T05:46:38.448Z,88.74
2022-11-24T05:49:06.317Z,89.02
2022-11-24T05:51:34.553Z,89.01
2022-11-24T05:54:02.564Z,88.73
2022-11-24T05:56:30.551Z,88.81
2022-11-24T05:58:58.544Z,88.77
2022-11-24T06:01:26.402Z,88.57
2022-11-24T06:03:54.372Z,88.62
2022-11-24T06:06:22.314Z,88.53
2022-11-24T06:08:50.324Z,88.65
2022-11-24T06:11:18.228Z,88.81
2022-11-24T06:13:48.679Z,88.51
2022-11-24T06:16:17.162Z,88.52
2022-11-24T06:18:45.137Z,88.68
2022-11-24T06:21:13.048Z,88.83
2022-11-24T06:23:41.193Z,88.60
2022-11-24T06:26:09.371Z,89.10
2022-11-24T06:28:37.485Z,89.03
2022-11-24T06:31:05.956Z,89.42
2022-11-24T06:33:37.081Z,89.59
2022-11-24T06:36:07.894Z,89.36
2022-11-24T06:38:36.824Z,89.32
2022-11-24T06:41:07.364Z,89.85
2022-11-24T06:43:35.978Z,89.89
2022-11-24T06:46:04.071Z,90.06
2022-11-24T06:48:32.903Z,89.84
2022-11-24T06:51:03.025Z,89.89
2022-11-24T06:53:32.309Z,89.84
2022-11-24T06:56:01.049Z,89.58
2022-11-24T06:58:29.082Z,89.94
2022-11-24T07:00:57.211Z,89.82
2022-11-24T07:03:25.236Z,89.71
2022-11-24T07:05:57.993Z,89.59
2022-11-24T07:08:26.343Z,89.75
2022-11-24T07:10:54.377Z,89.91
2022-11-24T07:13:22.362Z,90.03
2022-11-24T07:15:50.681Z,90.43
2022-11-24T07:18:18.625Z,89.96
2022-11-24T07:20:46.419Z,89.92
2022-11-24T07:23:14.309Z,90.02
2022-11-24T07:25:42.274Z,89.99
2022-11-24T07:28:10.186Z,90.22
2022-11-24T07:30:38.103Z,90.28
2022-11-24T07:33:06.004Z,90.36
2022-11-24T07:35:33.897Z,90.38
2022-11-24T07:38:01.843Z,90.45
2022-11-24T07:40:29.781Z,90.54
2022-11-24T07:43:01.124Z,90.60
2022-11-24T07:45:28.985Z,90.46
2022-11-24T07:47:56.939Z,90.48
2022-11-24T07:50:24.833Z,90.40
2022-11-24T07:52:52.854Z,90.46
2022-11-24T07:55:20.700Z,90.67
2022-11-24T07:57:48.505Z,90.96
2022-11-24T08:00:17.153Z,90.85
2022-11-24T08:02:44.948Z,90.65
2022-11-24T08:05:13.008Z,90.92
2022-11-24T08:07:40.895Z,90.76
2022-11-24T08:10:09.072Z,90.75
2022-11-24T08:12:37.068Z,90.52
2022-11-24T08:15:10.924Z,90.33
2022-11-24T08:17:39.305Z,90.12
2022-11-24T08:20:08.762Z,90.45
2022-11-24T08:22:36.599Z,90.61
2022-11-24T08:25:04.721Z,90.76
2022-11-24T08:27:32.753Z,91.02
2022-11-24T08:30:00.695Z,91.40
2022-11-24T08:32:28.558Z,91.23
2022-11-24T08:35:03.282Z,91.59
2022-11-24T08:37:41.351Z,91.47
2022-11-24T08:40:09.933Z,91.10
2022-11-24T08:42:37.824Z,90.56
2022-11-24T08:45:19.857Z,90.66
2022-11-24T08:47:52.932Z,90.65
2022-11-24T08:50:22.633Z,90.32
2022-11-24T08:52:52.592Z,90.13
2022-11-24T08:55:20.880Z,90.17
2022-11-24T08:57:48.722Z,90.51
2022-11-24T09:00:22.538Z,90.58
2022-11-24T09:02:57.583Z,90.42
2022-11-24T09:05:50.776Z,90.36
2022-11-24T09:08:13.866Z,89.83
2022-11-24T09:10:41.906Z,90.32
2022-11-24T09:13:09.766Z,90.58
2022-11-24T09:15:37.648Z,90.45
2022-11-24T09:18:08.567Z,90.41
2022-11-24T09:20:36.522Z,89.91
2022-11-24T09:23:04.611Z,89.71
2022-11-24T09:25:42.303Z,89.79
2022-11-24T09:28:10.188Z,89.73
2022-11-24T09:30:38.150Z,89.41
2022-11-24T09:33:06.084Z,89.26
2022-11-24T09:35:37.257Z,89.19
2022-11-24T09:38:05.829Z,89.33
2022-11-24T09:40:33.819Z,89.43
2022-11-24T09:43:20.660Z,89.21
2022-11-24T09:46:06.519Z,89.37
2022-11-24T09:48:41.447Z,88.79
2022-11-24T09:51:14.838Z,88.32
2022-11-24T09:53:53.814Z,87.65
2022-11-24T09:56:27.851Z,87.47
2022-11-24T09:59:15.315Z,87.92
2022-11-24T10:01:45.712Z,87.97
2022-11-24T10:04:21.669Z,87.92
2022-11-24T10:07:11.541Z,88.13
2022-11-24T10:10:22.833Z,88.23
2022-11-24T10:13:07.529Z,88.38
2022-11-24T10:16:09.029Z,88.00
2022-11-24T10:19:13.058Z,88.27
2022-11-24T10:22:07.635Z,88.77
2022-11-24T10:25:15.156Z,88.68
2022-11-24T10:28:02.237Z,88.35
2022-11-24T10:30:31.177Z,87.58
2022-11-24T10:33:08.209Z,86.51
2022-11-24T10:35:48.629Z,86.80
2022-11-24T10:38:37.430Z,86.48
2022-11-24T10:41:14.588Z,87.10
2022-11-24T10:43:44.009Z,87.72
2022-11-24T10:46:19.823Z,87.86
2022-11-24T10:48:59.202Z,87.47
2022-11-24T10:51:49.771Z,87.36
2022-11-24T10:54:19.267Z,86.90
2022-11-24T10:56:50.683Z,86.61
2022-11-24T10:59:39.600Z,86.55
2022-11-24T11:02:37.688Z,86.82
2022-11-24T11:05:25.512Z,86.46
2022-11-24T11:08:21.539Z,86.45
2022-11-24T11:11:09.770Z,86.56
2022-11-24T11:13:37.590Z,86.84
2022-11-24T11:16:24.246Z,86.27
2022-11-24T11:18:53.193Z,86.04
2022-11-24T11:21:36.699Z,86.77
2022-11-24T11:24:16.494Z,86.84
2022-11-24T11:26:44.734Z,86.31
2022-11-24T11:35:12.766Z,85.76
2022-11-24T11:37:45.364Z,86.29
2022-11-24T11:40:21.895Z,86.29
2022-11-24T11:43:04.093Z,85.66
2022-11-24T11:45:36.906Z,85.80
2022-11-24T11:48:23.823Z,85.53
2022-11-24T11:51:25.882Z,85.33
2022-11-24T11:54:02.995Z,86.10
2022-11-24T11:56:37.585Z,86.33
2022-11-24T11:59:30.932Z,86.48
2022-11-24T12:02:33.632Z,86.36
2022-11-24T12:05:20.159Z,86.52
2022-11-24T12:08:14.674Z,86.57
2022-11-24T12:11:13.932Z,86.97
2022-11-24T12:13:45.064Z,87.10
2022-11-24T12:16:22.079Z,87.31
2022-11-24T12:18:58.315Z,87.51
2022-11-24T12:21:52.886Z,87.50
2022-11-24T12:24:52.151Z,87.26
2022-11-24T12:27:55.647Z,87.31
2022-11-24T12:30:24.210Z,87.40
2022-11-24T12:33:26.459Z,86.84
2022-11-24T12:36:17.171Z,86.56
2022-11-24T12:38:52.167Z,86.53
2022-11-24T12:41:43.116Z,86.63
2022-11-24T12:44:30.823Z,86.48
2022-11-24T12:47:31.230Z,85.34
2022-11-24T12:50:18.942Z,85.46
2022-11-24T12:52:52.899Z,86.27
2022-11-24T12:55:25.621Z,85.93
2022-11-24T12:58:12.280Z,85.60
2022-11-24T13:00:46.985Z,85.36
2022-11-24T13:03:27.085Z,85.97
2022-11-24T13:06:23.982Z,85.74
2022-11-24T13:08:51.995Z,85.42
2022-11-24T13:11:22.861Z,85.68
2022-11-24T13:14:15.308Z,86.11
2022-11-24T13:19:46.150Z,85.83
2022-11-24T13:22:28.197Z,86.13
2022-11-24T13:25:33.431Z,86.71
2022-11-24T13:28:03.528Z,87.09
2022-11-24T13:30:34.631Z,86.74
2022-11-24T13:33:16.011Z,85.98
2022-11-24T13:36:04.299Z,86.14
2022-11-24T13:38:59.360Z,86.00
2022-11-24T13:41:33.498Z,86.24
2022-11-24T13:44:13.826Z,86.15
2022-11-24T13:47:06.945Z,86.28
2022-11-24T13:49:38.891Z,86.71
2022-11-24T13:52:37.967Z,86.47
2022-11-24T13:55:12.053Z,85.98
2022-11-24T13:57:42.980Z,86.34
2022-11-24T14:00:27.272Z,86.28
2022-11-24T14:03:01.693Z,85.91
2022-11-24T14:05:51.991Z,86.28
2022-11-24T14:08:27.181Z,86.64
2022-11-24T14:10:57.481Z,87.23
2022-11-24T14:13:27.477Z,86.91
2022-11-24T14:16:21.731Z,87.12
2022-11-24T14:18:51.690Z,86.89
2022-11-24T14:21:26.123Z,86.91
2022-11-24T14:24:08.844Z,87.02
2022-11-24T14:26:39.485Z,86.91
2022-11-24T14:29:14.797Z,87.33
2022-11-24T14:31:51.878Z,87.35
2022-11-24T14:34:21.309Z,87.22
2022-11-24T14:36:50.300Z,87.03
2022-11-24T14:39:22.920Z,86.87
2022-11-24T14:42:27.550Z,86.79
2022-11-24T14:45:04.022Z,86.74
2022-11-24T14:47:36.337Z,86.79
2022-11-24T14:50:15.585Z,86.79
2022-11-24T14:53:02.224Z,86.51
2022-11-24T14:55:32.140Z,86.35
2022-11-24T14:58:00.240Z,86.74
2022-11-24T15:00:32.890Z,86.90
2022-11-24T15:03:00.706Z,86.86
2022-11-24T15:05:52.491Z,86.73
2022-11-24T15:08:20.619Z,87.09
2022-11-24T15:10:49.011Z,87.02
2022-11-24T15:13:21.489Z,86.95
2022-11-24T15:15:57.563Z,87.23
2022-11-24T15:18:34.574Z,87.14
2022-11-24T15:21:03.434Z,87.29
2022-11-24T15:23:33.041Z,87.03
2022-11-24T15:26:00.900Z,87.18
2022-11-24T15:28:30.634Z,87.06
2022-11-24T15:31:09.580Z,86.48
2022-11-24T15:33:38.288Z,86.73
2022-11-24T15:36:06.489Z,87.13
2022-11-24T15:38:34.369Z,87.00
2022-11-24T15:41:02.624Z,87.10
2022-11-24T15:43:42.617Z,87.11
2022-11-24T15:46:11.021Z,87.05
2022-11-24T15:48:39.623Z,86.93
2022-11-24T15:51:15.022Z,86.99
2022-11-24T15:53:46.745Z,87.19
2022-11-24T15:56:25.482Z,86.60
2022-11-24T15:58:54.286Z,86.77
2022-11-24T16:01:24.475Z,87.17
2022-11-24T16:03:52.345Z,87.11
2022-11-24T16:06:25.234Z,87.38
2022-11-24T16:08:54.621Z,87.40
2022-11-24T16:11:22.997Z,87.42
2022-11-24T16:13:53.970Z,87.45
2022-11-24T16:16:24.853Z,87.35
2022-11-24T16:18:53.327Z,86.91
2022-11-24T16:21:21.292Z,86.54
2022-11-24T16:23:49.099Z,86.50
2022-11-24T16:26:17.112Z,86.48
2022-11-24T16:28:45.922Z,86.20
2022-11-24T16:31:16.348Z,86.04
2022-11-24T16:33:47.896Z,86.33
2022-11-24T16:36:15.748Z,86.36
2022-11-24T16:38:43.823Z,86.29
2022-11-24T16:41:11.803Z,86.39
2022-11-24T16:43:39.929Z,86.12
2022-11-24T16:46:14.332Z,85.83
2022-11-24T16:48:42.327Z,86.05
2022-11-24T16:51:11.286Z,86.27
2022-11-24T16:53:39.908Z,86.39
2022-11-24T16:56:08.414Z,86.50
2022-11-24T16:58:41.204Z,86.59
2022-11-24T17:01:12.335Z,86.57
2022-11-24T17:03:40.946Z,86.35
2022-11-24T17:06:11.564Z,86.14
2022-11-24T17:08:40.936Z,86.51
2022-11-24T17:11:14.784Z,86.57
2022-11-24T17:13:43.157Z,86.89
2022-11-24T17:16:14.048Z,87.15
2022-11-24T17:18:42.914Z,87.33
2022-11-24T17:21:14.804Z,87.41
2022-11-24T17:23:43.464Z,87.68
2022-11-24T17:26:16.095Z,87.54
2022-11-24T17:28:44.215Z,87.39
2022-11-24T17:31:17.924Z,86.99
2022-11-24T17:33:45.893Z,86.93
2022-11-24T17:36:13.952Z,86.90
2022-11-24T17:38:41.983Z,86.88
2022-11-24T17:41:09.803Z,87.08
2022-11-24T17:43:38.211Z,87.22
2022-11-24T17:46:06.219Z,87.13
2022-11-24T17:48:35.418Z,87.09
2022-11-24T17:51:10.162Z,87.17
2022-11-24T17:53:39.279Z,87.37
2022-11-24T17:56:11.439Z,87.21
2022-11-24T17:58:42.860Z,87.15
2022-11-24T18:01:12.909Z,87.12
2022-11-24T18:03:41.615Z,87.01
2022-11-24T18:06:12.995Z,86.97
2022-11-24T18:08:46.725Z,86.89
2022-11-24T18:11:24.652Z,86.66
2022-11-24T18:14:00.652Z,86.64
2022-11-24T18:16:33.551Z,87.20
2022-11-24T18:19:11.558Z,87.37
2022-11-24T18:21:41.422Z,87.86
2022-11-24T18:24:12.001Z,87.91
2022-11-24T18:26:41.890Z,88.18
2022-11-24T18:29:11.516Z,88.06
2022-11-24T18:31:39.716Z,87.76
2022-11-24T18:34:08.184Z,87.74
2022-11-24T18:36:36.322Z,87.98
2022-11-24T18:39:06.673Z,88.06
2022-11-24T18:41:35.196Z,87.83
2022-11-24T18:44:07.886Z,87.86
2022-11-24T18:46:37.078Z,87.82
2022-11-24T18:49:07.440Z,87.73
2022-11-24T18:51:35.878Z,87.79
2022-11-24T18:54:05.611Z,87.64
2022-11-24T18:56:33.828Z,87.59
2022-11-24T18:59:01.923Z,87.48
2022-11-24T19:01:30.111Z,87.81
2022-11-24T19:04:00.717Z,87.76
2022-11-24T19:06:32.649Z,87.57
2022-11-24T19:09:07.103Z,87.67
2022-11-24T19:11:38.765Z,87.62
2022-11-24T19:14:08.906Z,87.51
2022-11-24T19:16:37.229Z,87.29
2022-11-24T19:19:05.342Z,87.07
2022-11-24T19:21:37.619Z,86.99
2022-11-24T19:24:10.414Z,87.03
2022-11-24T19:26:39.529Z,86.84
2022-11-24T19:29:08.436Z,86.91
2022-11-24T19:31:40.598Z,86.99
2022-11-24T19:34:08.661Z,87.03
2022-11-24T19:36:36.759Z,87.42
2022-11-24T19:39:05.361Z,87.36
2022-11-24T19:41:34.577Z,87.15
2022-11-24T19:44:02.680Z,87.12
2022-11-24T19:46:31.535Z,87.14
2022-11-24T19:49:01.141Z,87.24
2022-11-24T19:51:31.841Z,87.43
2022-11-24T19:54:00.560Z,87.46
2022-11-24T19:56:30.964Z,86.91
2022-11-24T19:58:59.127Z,87.10
2022-11-24T20:01:29.930Z,86.94
2022-11-24T20:04:00.708Z,87.02
2022-11-24T20:06:33.757Z,87.37
2022-11-24T20:09:01.877Z,87.67
2022-11-24T20:11:30.591Z,87.74
2022-11-24T20:13:59.565Z,87.51
2022-11-24T20:16:30.576Z,87.25
2022-11-24T20:19:01.744Z,87.76
2022-11-24T20:21:32.715Z,87.94
2022-11-24T20:24:03.898Z,88.22
2022-11-24T20:26:35.935Z,88.21
2022-11-24T20:29:04.910Z,87.71
2022-11-24T20:31:38.743Z,87.64
2022-11-24T20:34:07.183Z,88.14
2022-11-24T20:36:36.715Z,88.12
2022-11-24T20:39:08.538Z,88.13
2022-11-24T20:41:37.749Z,87.96
2022-11-24T20:44:08.670Z,87.87
2022-11-24T20:46:38.769Z,87.93
2022-11-24T20:49:09.135Z,87.88
2022-11-24T20:51:47.061Z,88.02
2022-11-24T20:54:17.964Z,88.53
2022-11-24T20:56:46.813Z,88.95
2022-11-24T20:59:18.112Z,89.06
2022-11-24T21:01:46.621Z,88.87
2022-11-24T21:04:21.505Z,88.91
2022-11-24T21:06:49.716Z,88.78
2022-11-24T21:09:18.777Z,88.43
2022-11-24T21:11:47.540Z,87.77
2022-11-24T21:14:15.645Z,87.88
2022-11-24T21:16:44.136Z,87.93
2022-11-24T21:19:14.621Z,88.18
2022-11-24T21:21:43.099Z,88.68
2022-11-24T21:24:16.913Z,88.96
2022-11-24T21:26:50.483Z,89.01
2022-11-24T21:29:22.036Z,88.72
2022-11-24T21:31:50.050Z,88.52
2022-11-24T21:34:19.189Z,88.77
2022-11-24T21:36:47.764Z,88.29
2022-11-24T21:39:16.365Z,87.89
2022-11-24T21:41:44.906Z,87.97
2022-11-24T21:44:13.881Z,87.95
2022-11-24T21:46:51.044Z,88.18
2022-11-24T21:49:23.623Z,88.46
2022-11-24T21:51:55.566Z,88.32
2022-11-24T21:54:23.917Z,88.13
2022-11-24T21:56:53.705Z,88.45
2022-11-24T21:59:22.315Z,88.21
2022-11-24T22:01:50.239Z,88.33
2022-11-24T22:04:18.183Z,88.23
2022-11-24T22:06:46.263Z,88.69
2022-11-24T22:09:17.934Z,88.81
2022-11-24T22:11:49.522Z,88.76
2022-11-24T22:14:18.053Z,88.71
2022-11-24T22:16:46.382Z,88.70
2022-11-24T22:19:14.326Z,88.73
2022-11-24T22:21:42.457Z,88.84
2022-11-24T22:24:10.609Z,88.70
2022-11-24T22:26:41.072Z,88.98
2022-11-24T22:29:09.460Z,88.92
2022-11-24T22:31:38.023Z,88.91
2022-11-24T22:34:06.032Z,88.63
2022-11-24T22:36:33.997Z,88.28
2022-11-24T22:39:03.900Z,88.19
2022-11-24T22:41:34.294Z,88.63
2022-11-24T22:44:02.506Z,88.12
2022-11-24T22:46:32.056Z,87.59
2022-11-24T22:49:01.416Z,87.78
2022-11-24T22:51:33.043Z,87.98
2022-11-24T22:54:03.215Z,88.01
2022-11-24T22:56:36.469Z,88.21
2022-11-24T22:59:04.785Z,88.51
2022-11-24T23:01:36.550Z,89.17
2022-11-24T23:04:04.804Z,89.02
2022-11-24T23:06:33.815Z,89.07
2022-11-24T23:09:04.064Z,89.49
2022-11-24T23:11:38.659Z,89.50
2022-11-24T23:14:12.056Z,89.27
2022-11-24T23:16:40.439Z,89.12
2022-11-24T23:19:08.955Z,89.16
2022-11-24T23:21:40.946Z,89.07
2022-11-24T23:24:10.652Z,89.25
2022-11-24T23:26:40.961Z,89.24
2022-11-24T23:29:10.787Z,89.16
2022-11-24T23:31:42.118Z,89.28
2022-11-24T23:34:10.146Z,89.26
2022-11-24T23:36:38.473Z,89.21
2022-11-24T23:39:10.893Z,89.26
2022-11-24T23:41:38.858Z,89.27
2022-11-24T23:44:07.270Z,89.28
2022-11-24T23:46:35.144Z,89.30
2022-11-24T23:49:03.342Z,89.39
2022-11-24T23:51:33.166Z,89.15
2022-11-24T23:54:01.552Z,89.55
2022-11-24T23:56:32.764Z,89.79
2022-11-24T23:59:02.930Z,89.69
